Time;durP1;ratioP1;P1;durP2;ratioP2;P2;SDS_P1;SDS_P2;PMS_P1;PMS_P2;Temp;Humidity;BMP_temperature;BMP_pressure;BME280_temperature;BME280_humidity;BME280_pressure;Samples;Min_cycle;Max_cycle;Signal;HPM_P1;HPM_P2
2022/10/04 00:01:44;;;;;;;0.80;0.80;;;20.70;72.80;;;;;;5136002;27;46630;-72
2022/10/04 00:04:16;;;;;;;1.67;1.00;;;20.70;72.90;;;;;;5141595;27;45755;-72
2022/10/04 00:06:48;;;;;;;1.20;0.75;;;20.70;73.00;;;;;;5143703;27;45364;-73
2022/10/04 00:09:19;;;;;;;1.00;0.70;;;20.70;72.90;;;;;;5141908;27;45398;-72
2022/10/04 00:11:48;;;;;;;1.00;0.70;;;20.70;72.90;;;;;;5135991;27;47121;-71
2022/10/04 00:14:19;;;;;;;1.30;0.65;;;20.70;73.00;;;;;;5142545;27;45378;-72
2022/10/04 00:16:47;;;;;;;1.00;0.90;;;20.70;73.00;;;;;;5138521;27;45421;-72
2022/10/04 00:19:26;;;;;;;0.80;0.73;;;20.70;72.80;;;;;;5135973;27;45470;-72
2022/10/04 00:22:16;;;;;;;2.03;0.90;;;20.70;72.90;;;;;;5141048;27;46662;-72
2022/10/04 00:25:20;;;;;;;1.15;0.73;;;20.70;72.80;;;;;;5142615;27;45295;-72
2022/10/04 00:28:26;;;;;;;1.05;0.90;;;20.70;72.80;;;;;;5137213;27;45494;-73
2022/10/04 00:31:20;;;;;;;1.40;1.00;;;20.70;72.70;;;;;;5139113;27;45372;-72
2022/10/04 00:33:50;;;;;;;2.13;1.00;;;20.70;72.60;;;;;;5141781;27;47664;-72
2022/10/04 00:36:47;;;;;;;0.85;0.65;;;20.70;72.60;;;;;;5147075;27;45298;-72
2022/10/04 00:39:38;;;;;;;1.65;0.60;;;20.70;72.60;;;;;;5142421;27;45411;-72
2022/10/04 00:42:44;;;;;;;0.73;0.63;;;20.70;72.60;;;;;;5136408;27;45579;-72
2022/10/04 00:45:18;;;;;;;1.15;0.90;;;20.70;72.50;;;;;;5143365;27;45475;-72
2022/10/04 00:48:09;;;;;;;1.40;0.90;;;20.70;72.50;;;;;;5146408;27;45495;-72
2022/10/04 00:50:42;;;;;;;1.38;0.85;;;20.70;72.50;;;;;;5146185;27;45678;-72
2022/10/04 00:53:19;;;;;;;1.33;0.80;;;20.70;72.50;;;;;;5139111;27;45399;-73
2022/10/04 00:55:50;;;;;;;1.23;0.90;;;20.70;72.60;;;;;;5147315;27;47457;-72
2022/10/04 00:58:22;;;;;;;0.80;0.80;;;20.70;72.60;;;;;;5142070;27;45361;-72
2022/10/04 01:00:49;;;;;;;0.93;0.70;;;20.70;72.60;;;;;;5143934;27;45377;-72
2022/10/04 01:03:23;;;;;;;2.40;1.05;;;20.70;72.60;;;;;;5133730;27;45435;-72
2022/10/04 01:05:58;;;;;;;2.03;0.80;;;20.70;72.50;;;;;;5140523;27;47871;-72
2022/10/04 01:08:30;;;;;;;3.35;0.90;;;20.70;72.80;;;;;;5146343;27;45879;-72
2022/10/04 01:11:01;;;;;;;1.27;0.70;;;20.70;72.60;;;;;;5144761;27;45343;-72
2022/10/04 01:13:31;;;;;;;1.55;0.77;;;20.70;72.50;;;;;;5126164;27;45444;-72
2022/10/04 01:16:06;;;;;;;1.63;0.75;;;20.70;72.70;;;;;;5144008;27;45451;-72
2022/10/04 01:18:34;;;;;;;1.58;0.68;;;20.70;72.60;;;;;;5146887;27;45500;-72
2022/10/04 01:21:05;;;;;;;1.42;0.80;;;20.70;72.70;;;;;;5144399;27;45489;-72
2022/10/04 01:23:42;;;;;;;0.70;0.70;;;20.70;72.60;;;;;;5142448;27;45438;-72
2022/10/04 01:26:39;;;;;;;1.40;0.98;;;20.70;72.60;;;;;;5143772;27;47520;-72
2022/10/04 01:29:13;;;;;;;1.00;0.70;;;20.70;72.30;;;;;;5142782;27;45298;-73
2022/10/04 01:31:43;;;;;;;0.98;0.70;;;20.70;72.40;;;;;;5140851;27;45345;-72
2022/10/04 01:34:13;;;;;;;0.98;0.80;;;20.70;72.40;;;;;;5144748;27;45485;-72
2022/10/04 01:36:40;;;;;;;1.88;0.90;;;20.70;72.30;;;;;;5144748;27;47877;-72
2022/10/04 01:39:08;;;;;;;1.40;0.98;;;20.70;72.30;;;;;;5139000;27;46001;-72
2022/10/04 01:41:45;;;;;;;0.80;0.68;;;20.70;72.20;;;;;;5145739;27;45384;-72
2022/10/04 01:44:19;;;;;;;2.15;0.90;;;20.70;72.30;;;;;;5139950;27;45418;-73
2022/10/04 01:46:46;;;;;;;1.13;0.80;;;20.70;72.20;;;;;;5145482;27;48523;-72
2022/10/04 01:49:18;;;;;;;1.52;0.80;;;20.70;72.20;;;;;;5139436;27;45459;-72
2022/10/04 01:51:56;;;;;;;0.88;0.75;;;20.70;72.20;;;;;;5142674;27;45248;-72
2022/10/04 01:54:32;;;;;;;2.03;1.00;;;20.70;72.20;;;;;;5136204;27;45505;-73
2022/10/04 01:57:03;;;;;;;1.00;0.80;;;20.70;72.10;;;;;;5141877;27;48652;-72
2022/10/04 01:59:37;;;;;;;1.65;1.15;;;20.70;72.30;;;;;;5134624;27;45278;-72
2022/10/04 02:02:08;;;;;;;0.90;0.80;;;20.70;72.30;;;;;;5142298;27;45261;-72
2022/10/04 02:04:38;;;;;;;1.00;0.80;;;20.70;72.20;;;;;;5137927;27;45667;-72
2022/10/04 02:07:12;;;;;;;0.60;0.50;;;20.70;72.30;;;;;;5144904;27;47475;-73
2022/10/04 02:09:43;;;;;;;1.00;0.75;;;20.70;72.20;;;;;;5143193;27;45247;-72
2022/10/04 02:12:11;;;;;;;1.02;0.93;;;20.70;72.20;;;;;;5140373;27;45445;-72
2022/10/04 02:14:43;;;;;;;0.70;0.70;;;20.70;72.30;;;;;;5136852;27;45902;-72
2022/10/04 02:17:12;;;;;;;1.35;0.73;;;20.70;72.20;;;;;;5135544;27;46309;-72
2022/10/04 02:19:41;;;;;;;1.00;0.70;;;20.70;72.20;;;;;;5137216;27;45311;-73
2022/10/04 02:22:10;;;;;;;1.35;0.85;;;20.70;72.10;;;;;;5141683;27;45427;-72
2022/10/04 02:24:42;;;;;;;2.47;0.85;;;20.70;72.10;;;;;;5141767;27;45521;-72
2022/10/04 02:27:09;;;;;;;1.45;0.70;;;20.70;71.90;;;;;;5140596;27;48072;-72
2022/10/04 02:29:36;;;;;;;1.55;0.93;;;20.70;72.10;;;;;;5133986;27;45473;-72
2022/10/04 02:34:49;;;;;;;1.00;0.70;;;20.70;71.90;;;;;;5136931;27;45536;-72
2022/10/04 02:37:17;;;;;;;1.60;0.85;;;20.70;72.00;;;;;;5136527;27;48208;-72
2022/10/04 02:39:48;;;;;;;1.05;0.68;;;20.70;71.90;;;;;;5145238;27;45356;-73
2022/10/04 02:42:20;;;;;;;1.10;0.68;;;20.70;71.80;;;;;;5144293;27;45392;-72
2022/10/04 02:44:51;;;;;;;1.00;0.70;;;20.70;71.80;;;;;;5143935;27;45433;-72
2022/10/04 02:47:23;;;;;;;1.45;0.70;;;20.70;71.70;;;;;;5145139;27;45386;-72
2022/10/04 02:49:53;;;;;;;1.00;0.77;;;20.70;71.80;;;;;;5129156;27;46102;-72
2022/10/04 02:52:25;;;;;;;0.77;0.70;;;20.70;71.70;;;;;;5124421;27;45418;-73
2022/10/04 02:55:01;;;;;;;1.88;0.77;;;20.70;71.80;;;;;;5132691;27;45208;-73
2022/10/04 02:57:31;;;;;;;1.35;0.70;;;20.70;71.80;;;;;;5136722;27;46552;-72
2022/10/04 03:00:09;;;;;;;0.82;0.73;;;20.70;71.80;;;;;;5144858;27;45434;-72
2022/10/04 03:02:36;;;;;;;2.20;0.90;;;20.70;71.70;;;;;;5144317;27;45307;-72
2022/10/04 03:05:08;;;;;;;1.75;1.10;;;20.70;72.90;;;;;;5144366;27;45382;-72
2022/10/04 03:07:36;;;;;;;1.10;0.80;;;20.70;71.70;;;;;;5122745;27;45213;-72
2022/10/04 03:10:08;;;;;;;1.98;0.80;;;20.70;71.90;;;;;;5122920;27;45339;-73
2022/10/04 03:12:37;;;;;;;1.83;0.80;;;20.60;71.60;;;;;;5127350;27;45245;-72
2022/10/04 03:15:07;;;;;;;1.75;0.90;;;20.60;71.70;;;;;;5124441;27;45686;-73
2022/10/04 03:17:34;;;;;;;1.00;0.80;;;20.70;71.70;;;;;;5148395;27;46224;-72
2022/10/04 03:20:02;;;;;;;1.20;0.95;;;20.70;71.60;;;;;;5143774;27;45205;-72
2022/10/04 03:22:29;;;;;;;1.60;0.70;;;20.70;71.60;;;;;;5144438;27;45409;-73
2022/10/04 03:24:57;;;;;;;1.35;0.70;;;20.70;71.50;;;;;;5141307;27;45444;-72
2022/10/04 03:27:29;;;;;;;1.35;0.80;;;20.70;71.40;;;;;;5144726;27;46645;-72
2022/10/04 03:29:58;;;;;;;1.48;0.93;;;20.70;71.50;;;;;;5141476;27;45349;-73
2022/10/04 03:32:25;;;;;;;1.23;0.80;;;20.70;71.40;;;;;;5143733;27;45395;-72
2022/10/04 03:34:57;;;;;;;2.25;0.82;;;20.70;71.40;;;;;;5142447;27;45411;-72
2022/10/04 03:37:25;;;;;;;0.93;0.80;;;20.70;71.40;;;;;;5141085;27;47317;-72
2022/10/04 03:39:55;;;;;;;1.80;0.95;;;20.70;71.40;;;;;;5134896;27;45321;-72
2022/10/04 03:42:24;;;;;;;1.83;0.85;;;20.70;71.40;;;;;;5142859;27;45382;-72
2022/10/04 03:44:55;;;;;;;1.35;0.77;;;20.70;71.40;;;;;;5144570;27;45419;-73
2022/10/04 03:47:25;;;;;;;2.95;0.98;;;20.70;71.30;;;;;;5144840;27;46973;-72
2022/10/04 03:49:53;;;;;;;1.25;0.80;;;20.70;71.40;;;;;;5140471;27;45450;-72
2022/10/04 03:52:25;;;;;;;1.10;0.70;;;20.70;72.50;;;;;;5138469;27;45370;-73
2022/10/04 03:54:54;;;;;;;0.95;0.68;;;20.60;71.10;;;;;;5144202;27;45201;-72
2022/10/04 03:57:22;;;;;;;1.83;0.90;;;20.60;71.00;;;;;;5143563;27;47641;-72
2022/10/04 03:59:49;;;;;;;1.48;0.85;;;20.60;70.90;;;;;;5144820;27;45386;-72
2022/10/04 04:02:25;;;;;;;1.13;0.68;;;20.60;70.30;;;;;;5143178;27;45450;-72
2022/10/04 04:05:03;;;;;;;1.60;0.98;;;20.60;69.30;;;;;;5141679;27;45568;-73
2022/10/04 04:07:36;;;;;;;1.48;0.75;;;20.60;68.90;;;;;;5144029;27;47115;-72
2022/10/04 04:10:10;;;;;;;1.20;0.90;;;20.60;68.90;;;;;;5146408;27;45506;-72
2022/10/04 04:12:40;;;;;;;1.65;1.08;;;20.60;68.90;;;;;;5144522;27;45435;-72
2022/10/04 04:15:10;;;;;;;1.60;1.00;;;20.60;68.80;;;;;;5139308;27;45505;-72
2022/10/04 04:17:40;;;;;;;2.00;0.85;;;20.50;68.90;;;;;;5139230;27;47116;-72
2022/10/04 04:20:18;;;;;;;3.25;1.00;;;20.50;69.20;;;;;;5144937;27;45452;-73
2022/10/04 04:22:55;;;;;;;1.08;0.80;;;20.50;69.10;;;;;;5148055;27;45306;-72
2022/10/04 04:25:25;;;;;;;4.85;0.90;;;20.50;69.00;;;;;;5148181;27;45264;-72
2022/10/04 04:27:59;;;;;;;1.10;0.90;;;20.50;69.10;;;;;;5138710;27;45518;-72
2022/10/04 04:30:26;;;;;;;1.80;0.90;;;20.50;68.90;;;;;;5141206;27;45455;-72
2022/10/04 04:32:57;;;;;;;1.35;1.02;;;20.50;68.90;;;;;;5140814;27;46333;-73
2022/10/04 04:35:30;;;;;;;2.72;1.17;;;20.50;68.90;;;;;;5137096;27;45374;-73
2022/10/04 04:38:16;;;;;;;2.35;1.10;;;20.50;68.70;;;;;;5146457;27;47993;-72
2022/10/04 04:40:43;;;;;;;2.08;1.13;;;20.50;68.70;;;;;;5136930;27;45211;-72
2022/10/04 04:43:17;;;;;;;1.42;0.88;;;20.60;68.90;;;;;;5147516;27;45299;-72
2022/10/04 04:45:47;;;;;;;1.42;1.08;;;20.50;69.00;;;;;;5141994;27;45566;-72
2022/10/04 04:48:17;;;;;;;1.17;0.73;;;20.60;69.30;;;;;;5144499;27;46662;-72
2022/10/04 04:50:49;;;;;;;3.13;1.10;;;20.60;69.40;;;;;;5146058;27;45416;-72
2022/10/04 04:53:21;;;;;;;0.85;0.73;;;20.60;69.50;;;;;;5147410;27;45412;-72
2022/10/04 04:55:52;;;;;;;1.40;0.88;;;20.60;69.60;;;;;;5146838;27;45362;-72
2022/10/04 04:58:21;;;;;;;2.13;0.90;;;20.60;69.70;;;;;;5147697;27;45569;-71
2022/10/04 05:00:56;;;;;;;1.20;1.00;;;20.60;69.80;;;;;;5145007;27;45394;-71
2022/10/04 05:03:24;;;;;;;1.17;0.75;;;20.60;69.90;;;;;;5147467;27;45453;-72
2022/10/04 05:05:53;;;;;;;0.73;0.73;;;20.60;70.00;;;;;;5133521;27;45497;-72
2022/10/04 05:08:22;;;;;;;2.05;0.95;;;20.60;70.00;;;;;;5144125;27;47013;-72
2022/10/04 05:10:56;;;;;;;2.75;1.05;;;20.60;70.10;;;;;;5141955;27;45343;-72
2022/10/04 05:13:25;;;;;;;1.20;0.90;;;20.60;70.10;;;;;;5146835;27;45362;-72
2022/10/04 05:15:57;;;;;;;1.10;0.88;;;20.60;70.10;;;;;;5139343;27;45278;-72
2022/10/04 05:18:33;;;;;;;1.75;0.90;;;20.60;70.10;;;;;;5140248;27;46059;-73
2022/10/04 05:21:05;;;;;;;1.65;1.00;;;20.60;70.30;;;;;;5144172;27;45535;-72
2022/10/04 05:23:33;;;;;;;1.35;0.90;;;20.60;70.30;;;;;;5142180;27;45268;-72
2022/10/04 05:26:01;;;;;;;2.05;0.90;;;20.60;71.40;;;;;;5131658;27;45283;-73
2022/10/04 05:28:29;;;;;;;2.95;0.90;;;20.60;70.40;;;;;;5147740;27;48606;-71
2022/10/04 05:31:35;;;;;;;0.63;0.60;;;20.60;70.50;;;;;;5145856;27;46403;-72
2022/10/04 05:34:17;;;;;;;1.35;1.00;;;20.60;70.50;;;;;;5139920;27;45276;-72
2022/10/04 05:37:00;;;;;;;1.15;0.70;;;20.60;70.50;;;;;;5143956;27;45536;-72
2022/10/04 05:39:32;;;;;;;1.42;1.00;;;20.60;70.50;;;;;;5129222;27;45587;-72
2022/10/04 05:42:07;;;;;;;2.13;0.82;;;20.60;70.60;;;;;;5125638;27;45365;-72
2022/10/04 05:44:44;;;;;;;1.05;0.70;;;20.60;70.60;;;;;;5128023;27;45557;-72
2022/10/04 05:47:13;;;;;;;2.05;0.95;;;20.60;70.60;;;;;;5128591;27;45426;-72
2022/10/04 05:49:43;;;;;;;1.10;0.90;;;20.60;70.60;;;;;;5143794;27;46122;-71
2022/10/04 05:52:15;;;;;;;2.00;0.88;;;20.60;70.80;;;;;;5124329;27;45357;-72
2022/10/04 05:54:42;;;;;;;0.65;0.65;;;20.60;70.70;;;;;;5128196;27;45409;-72
2022/10/04 05:57:36;;;;;;;0.88;0.75;;;20.60;70.80;;;;;;5140616;27;45437;-73
2022/10/04 06:00:12;;;;;;;1.10;0.90;;;20.60;70.80;;;;;;5139724;27;48005;-73
2022/10/04 06:03:03;;;;;;;1.00;0.90;;;20.60;70.80;;;;;;5123384;27;45360;-72
2022/10/04 06:05:43;;;;;;;1.60;0.80;;;20.60;70.80;;;;;;5125778;27;45463;-72
2022/10/04 06:08:19;;;;;;;1.42;1.00;;;20.60;70.80;;;;;;5124783;27;45416;-72
2022/10/04 06:11:08;;;;;;;1.92;0.90;;;20.60;70.70;;;;;;5123791;27;48049;-72
2022/10/04 06:14:06;;;;;;;1.75;0.90;;;20.60;70.80;;;;;;5126843;27;45687;-73
2022/10/04 06:16:48;;;;;;;1.25;0.82;;;20.60;70.80;;;;;;5124161;27;45351;-72
2022/10/04 06:19:52;;;;;;;1.38;0.93;;;20.60;70.80;;;;;;5143922;27;45525;-72
2022/10/04 06:22:22;;;;;;;1.63;0.88;;;20.60;70.80;;;;;;5144416;27;47243;-73
2022/10/04 06:24:51;;;;;;;1.58;0.90;;;20.60;70.80;;;;;;5143688;27;45318;-72
2022/10/04 06:27:26;;;;;;;1.15;0.68;;;20.60;70.70;;;;;;5146526;27;45393;-72
2022/10/04 06:29:58;;;;;;;1.20;0.80;;;20.60;70.70;;;;;;5125102;27;45411;-73
2022/10/04 06:33:05;;;;;;;1.75;0.90;;;20.60;70.70;;;;;;5124424;27;46106;-72
2022/10/04 06:36:12;;;;;;;2.00;1.02;;;20.60;70.70;;;;;;5130035;27;45502;-72
2022/10/04 06:39:12;;;;;;;1.38;1.00;;;20.60;70.70;;;;;;5081304;27;45420;-72
2022/10/04 06:42:02;;;;;;;1.35;0.75;;;20.60;70.80;;;;;;5072237;27;45466;-72
2022/10/04 06:44:44;;;;;;;1.38;0.77;;;20.60;70.80;;;;;;5082630;27;45374;-72
2022/10/04 06:47:26;;;;;;;1.25;0.80;;;20.60;70.80;;;;;;5138008;27;45245;-72
2022/10/04 06:49:56;;;;;;;1.85;0.85;;;20.60;70.80;;;;;;5145875;27;45308;-72
2022/10/04 06:52:40;;;;;;;0.82;0.80;;;20.60;70.80;;;;;;5145398;27;45334;-72
2022/10/04 06:55:34;;;;;;;1.45;0.77;;;20.60;70.90;;;;;;5144186;27;47115;-72
2022/10/04 06:58:25;;;;;;;2.83;1.17;;;20.60;70.90;;;;;;5145622;27;45210;-72
2022/10/04 07:00:58;;;;;;;1.20;0.73;;;20.60;70.90;;;;;;5142682;27;45372;-72
2022/10/04 07:03:29;;;;;;;1.58;0.77;;;20.60;70.90;;;;;;5144855;27;45322;-72
2022/10/04 07:06:02;;;;;;;2.30;1.08;;;20.60;70.90;;;;;;5133446;27;48120;-72
2022/10/04 07:08:37;;;;;;;1.25;0.75;;;20.60;70.90;;;;;;5145074;27;45315;-72
2022/10/04 07:11:12;;;;;;;2.38;0.90;;;20.60;70.80;;;;;;5144859;27;45519;-72
2022/10/04 07:13:46;;;;;;;1.38;0.80;;;20.60;70.90;;;;;;5144848;27;45565;-72
2022/10/04 07:16:26;;;;;;;0.75;0.73;;;20.60;70.80;;;;;;5143773;27;46070;-72
2022/10/04 07:19:00;;;;;;;0.80;0.80;;;20.60;70.80;;;;;;5141541;27;45334;-72
2022/10/04 07:21:36;;;;;;;1.05;0.82;;;20.60;70.80;;;;;;5131566;27;45424;-73
2022/10/04 07:24:05;;;;;;;0.88;0.80;;;20.70;70.90;;;;;;5134742;27;45600;-73
2022/10/04 07:26:39;;;;;;;1.65;0.70;;;20.70;70.90;;;;;;5136740;27;47352;-72
2022/10/04 07:29:21;;;;;;;1.23;0.70;;;20.70;70.90;;;;;;5130960;27;45374;-72
2022/10/04 07:31:53;;;;;;;0.82;0.63;;;20.60;70.80;;;;;;5132476;27;45391;-71
2022/10/04 07:34:26;;;;;;;53.10;5.07;;;20.70;70.90;;;;;;5143858;27;45322;-70
2022/10/04 07:36:55;;;;;;;15.23;2.45;;;20.70;71.90;;;;;;5130000;27;45435;-72
2022/10/04 07:39:26;;;;;;;11.07;1.85;;;20.70;71.20;;;;;;5145863;27;45269;-72
2022/10/04 07:41:57;;;;;;;4.15;1.50;;;20.70;71.30;;;;;;5128705;27;45342;-72
2022/10/04 07:44:33;;;;;;;7.00;1.35;;;20.60;71.10;;;;;;5126136;27;45322;-72
2022/10/04 07:47:06;;;;;;;5.85;1.25;;;20.60;71.20;;;;;;5144243;27;46875;-72
2022/10/04 07:49:38;;;;;;;6.18;1.08;;;20.60;71.20;;;;;;5144479;27;45660;-72
2022/10/04 07:52:40;;;;;;;5.32;1.38;;;20.60;71.20;;;;;;5144045;27;45258;-72
2022/10/04 07:55:18;;;;;;;3.80;1.20;;;20.60;71.20;;;;;;5143351;27;45560;-72
2022/10/04 07:57:52;;;;;;;4.55;1.20;;;20.60;71.20;;;;;;5144972;27;47628;-72
2022/10/04 08:00:23;;;;;;;5.53;1.00;;;20.60;71.10;;;;;;5143099;27;45403;-73
2022/10/04 08:03:10;;;;;;;4.63;1.30;;;20.60;71.10;;;;;;5136941;27;45476;-72
2022/10/04 08:05:41;;;;;;;2.28;1.00;;;20.60;71.10;;;;;;5137286;27;45525;-72
2022/10/04 08:08:29;;;;;;;6.50;1.02;;;20.60;71.00;;;;;;5143684;27;47880;-72
2022/10/04 08:11:15;;;;;;;2.63;1.00;;;20.60;70.90;;;;;;5143846;27;45363;-72
2022/10/04 08:13:53;;;;;;;2.65;1.05;;;20.60;70.80;;;;;;5144013;27;45374;-72
2022/10/04 08:16:33;;;;;;;4.35;1.10;;;20.70;71.00;;;;;;5143547;27;45344;-72
2022/10/04 08:19:24;;;;;;;3.63;2.05;;;20.70;71.00;;;;;;5128647;27;45446;-72
2022/10/04 08:22:00;;;;;;;3.53;1.38;;;20.70;70.90;;;;;;5140172;27;45262;-71
2022/10/04 08:24:34;;;;;;;1.40;0.93;;;20.70;70.90;;;;;;5150355;27;45343;-72
2022/10/04 08:27:22;;;;;;;2.45;1.00;;;20.70;70.80;;;;;;5149187;27;45457;-72
2022/10/04 08:30:03;;;;;;;2.15;1.10;;;20.70;70.80;;;;;;5142567;27;46051;-72
2022/10/04 08:32:48;;;;;;;2.30;1.20;;;20.70;70.90;;;;;;5142736;27;45359;-72
2022/10/04 08:35:35;;;;;;;2.42;1.00;;;20.70;70.90;;;;;;5144315;27;45267;-72
2022/10/04 08:38:26;;;;;;;3.78;0.93;;;20.70;71.00;;;;;;5122854;27;45218;-71
2022/10/04 08:41:35;;;;;;;2.50;1.10;;;20.70;71.00;;;;;;5125939;27;45494;-72
2022/10/04 08:44:33;;;;;;;1.85;0.75;;;20.60;71.00;;;;;;5131169;27;45438;-71
2022/10/04 08:47:33;;;;;;;1.13;0.90;;;20.60;71.00;;;;;;5136674;27;45393;-71
2022/10/04 08:50:30;;;;;;;2.97;1.08;;;20.70;71.00;;;;;;5135108;27;45281;-72
2022/10/04 08:53:45;;;;;;;1.20;0.90;;;20.70;71.10;;;;;;5139678;27;45220;-71
2022/10/04 08:56:21;;;;;;;1.35;0.88;;;20.70;71.00;;;;;;5078041;27;45773;-70
2022/10/04 08:59:05;;;;;;;8.02;1.40;;;20.70;70.90;;;;;;5142810;27;45347;-71
2022/10/04 09:01:48;;;;;;;1.80;1.10;;;20.70;70.90;;;;;;5146303;27;45568;-71
2022/10/04 09:04:39;;;;;;;6.13;1.33;;;20.70;70.80;;;;;;5144207;27;46093;-71
2022/10/04 09:07:27;;;;;;;4.35;1.40;;;20.80;70.70;;;;;;5145969;27;45311;-71
2022/10/04 09:10:20;;;;;;;2.35;1.05;;;20.70;70.20;;;;;;5146806;27;45395;-71
2022/10/04 09:12:59;;;;;;;1.40;1.10;;;20.80;69.90;;;;;;5142594;27;45403;-72
2022/10/04 09:15:51;;;;;;;2.05;1.08;;;20.80;70.10;;;;;;5132413;27;47802;-72
2022/10/04 09:18:28;;;;;;;4.18;1.55;;;20.80;70.40;;;;;;5146851;27;45380;-71
2022/10/04 09:21:00;;;;;;;1.80;1.10;;;20.80;70.50;;;;;;5128783;27;45398;-72
2022/10/04 09:24:09;;;;;;;1.38;1.10;;;20.80;70.50;;;;;;5142839;27;45456;-71
2022/10/04 09:26:44;;;;;;;4.43;1.00;;;20.80;70.50;;;;;;5135244;27;47042;-71
2022/10/04 09:29:34;;;;;;;3.00;1.42;;;20.80;70.20;;;;;;5139722;27;45430;-71
2022/10/04 09:32:30;;;;;;;1.83;1.17;;;20.80;70.00;;;;;;5146163;27;45505;-71
2022/10/04 09:35:30;;;;;;;1.67;1.35;;;20.70;70.10;;;;;;5129901;27;45467;-71
2022/10/04 09:38:41;;;;;;;1.92;1.27;;;20.70;70.10;;;;;;5126051;27;46618;-71
2022/10/04 09:41:29;;;;;;;7.55;1.70;;;20.70;70.30;;;;;;5128211;27;45378;-67
2022/10/04 09:44:32;;;;;;;16.50;2.20;;;20.80;70.80;;;;;;5125103;27;45520;-71
2022/10/04 09:47:30;;;;;;;14.48;2.58;;;20.80;74.40;;;;;;5147371;27;45350;-76
2022/10/04 09:50:25;;;;;;;12.50;2.33;;;20.80;78.90;;;;;;5146544;27;47449;-71
2022/10/04 09:52:57;;;;;;;7.97;2.13;;;20.80;81.40;;;;;;5127379;27;45385;-73
2022/10/04 09:55:52;;;;;;;5.07;1.80;;;20.70;78.40;;;;;;5146012;27;45313;-72
2022/10/04 09:58:47;;;;;;;3.75;1.50;;;20.70;78.80;;;;;;5146374;27;45488;-73
2022/10/04 10:01:24;;;;;;;6.63;1.92;;;20.60;78.80;;;;;;5146114;27;46598;-73
2022/10/04 10:04:10;;;;;;;4.43;1.60;;;20.60;79.00;;;;;;5145377;27;45445;-73
2022/10/04 10:06:49;;;;;;;4.00;1.40;;;20.60;79.60;;;;;;5140668;27;45370;-73
2022/10/04 10:13:38;;;;;;;6.05;1.90;;;20.60;80.40;;;;;;5146705;27;45312;-73
2022/10/04 10:15:28;;;;;;;2.95;1.48;;;20.60;81.60;;;;;;5145447;27;45590;-73
2022/10/04 10:18:04;;;;;;;2.95;1.40;;;20.60;81.90;;;;;;5143841;27;45396;-73
2022/10/04 10:21:04;;;;;;;3.70;1.50;;;20.60;82.20;;;;;;5146545;27;45416;-73
2022/10/04 10:23:54;;;;;;;5.47;1.58;;;20.50;82.80;;;;;;5125027;27;46631;-73
2022/10/04 10:27:02;;;;;;;2.28;1.40;;;20.50;83.30;;;;;;5127643;27;45358;-73
2022/10/04 10:29:51;;;;;;;4.63;2.10;;;20.50;83.80;;;;;;5134806;27;45387;-73
2022/10/04 10:32:53;;;;;;;1.67;1.30;;;20.50;84.00;;;;;;5146245;27;45512;-73
2022/10/04 10:35:28;;;;;;;2.45;1.20;;;20.50;84.50;;;;;;5142844;27;46803;-73
2022/10/04 10:38:14;;;;;;;2.25;1.40;;;20.50;84.80;;;;;;5146050;27;45341;-74
2022/10/04 10:40:54;;;;;;;3.78;1.50;;;20.50;85.10;;;;;;5145053;27;45281;-73
2022/10/04 10:43:50;;;;;;;3.60;1.40;;;20.50;86.00;;;;;;5145926;27;45295;-73
2022/10/04 10:46:35;;;;;;;3.33;1.25;;;20.50;86.10;;;;;;5138327;27;46097;-73
2022/10/04 10:49:19;;;;;;;2.90;1.38;;;20.50;86.30;;;;;;5125542;27;45415;-73
2022/10/04 10:52:12;;;;;;;1.58;1.20;;;20.50;86.80;;;;;;5124653;27;45354;-73
2022/10/04 10:55:01;;;;;;;1.98;1.40;;;20.50;87.10;;;;;;5138531;27;45382;-73
2022/10/04 10:57:53;;;;;;;4.47;1.15;;;20.50;87.00;;;;;;5124653;27;45269;-73
2022/10/04 11:00:21;;;;;;;3.33;1.30;;;20.50;86.90;;;;;;5123991;27;45380;-73
2022/10/04 11:03:33;;;;;;;1.58;0.98;;;20.50;87.30;;;;;;5123904;27;45392;-70
2022/10/04 11:06:45;;;;;;;2.03;1.40;;;20.50;88.50;;;;;;5124266;27;45513;-73
2022/10/04 11:09:33;;;;;;;2.05;1.52;;;20.60;87.80;;;;;;5124239;27;48636;-73
2022/10/04 11:12:31;;;;;;;2.72;1.23;;;20.60;87.80;;;;;;5125547;27;45316;-71
2022/10/04 11:15:24;;;;;;;5.50;1.50;;;20.60;88.00;;;;;;5138035;27;45342;-74
2022/10/04 11:18:39;;;;;;;1.58;1.27;;;20.60;88.20;;;;;;5135965;27;45501;-73
2022/10/04 11:21:43;;;;;;;1.83;1.25;;;20.60;88.40;;;;;;5047393;28;46258;-73
2022/10/04 11:24:34;;;;;;;1.10;1.00;;;20.60;88.60;;;;;;5144882;27;45364;-74
2022/10/04 11:27:13;;;;;;;1.50;1.10;;;20.60;88.70;;;;;;5124804;27;45263;-73
2022/10/04 11:30:03;;;;;;;2.33;1.20;;;20.60;88.90;;;;;;5141144;27;45321;-74
2022/10/04 11:33:08;;;;;;;2.60;1.20;;;20.50;89.00;;;;;;5127574;27;45503;-73
2022/10/04 11:35:54;;;;;;;3.17;1.10;;;20.50;89.20;;;;;;5094736;27;45473;-74
2022/10/04 11:38:46;;;;;;;1.75;1.20;;;20.50;89.20;;;;;;5162714;27;45459;-74
2022/10/04 11:41:18;;;;;;;1.52;1.17;;;20.50;89.80;;;;;;5147870;27;45510;-73
2022/10/04 11:44:05;;;;;;;1.83;1.13;;;20.60;90.00;;;;;;5144342;27;45399;-74
2022/10/04 11:46:39;;;;;;;2.58;1.20;;;20.50;90.50;;;;;;5137846;27;45260;-74
2022/10/04 11:49:25;;;;;;;1.90;0.98;;;20.50;90.10;;;;;;5144496;27;45532;-74
2022/10/04 11:52:19;;;;;;;1.98;1.10;;;20.50;90.20;;;;;;5145115;27;45324;-74
2022/10/04 11:55:16;;;;;;;1.67;1.08;;;20.50;90.10;;;;;;5138999;27;46511;-74
2022/10/04 11:57:50;;;;;;;1.73;1.10;;;20.60;90.10;;;;;;5132047;27;45643;-74
2022/10/04 12:00:19;;;;;;;1.48;1.02;;;20.60;90.00;;;;;;5135055;27;45335;-74
2022/10/04 12:03:12;;;;;;;1.75;1.05;;;20.60;90.10;;;;;;5134776;27;45337;-74
2022/10/04 12:05:53;;;;;;;1.00;0.90;;;20.60;90.10;;;;;;5143282;27;46644;-75
2022/10/04 12:08:28;;;;;;;1.58;1.13;;;20.60;90.10;;;;;;5123749;27;45472;-74
2022/10/04 12:14:42;;;;;;;3.00;1.20;;;20.60;90.20;;;;;;5127906;27;45388;-74
2022/10/04 12:17:39;;;;;;;3.00;1.42;;;20.60;90.20;;;;;;5144734;27;48436;-74
2022/10/04 12:20:37;;;;;;;1.95;1.25;;;20.60;90.20;;;;;;5144548;27;45669;-74
2022/10/04 12:23:31;;;;;;;1.73;1.00;;;20.60;90.20;;;;;;5134867;27;45409;-74
2022/10/04 12:26:31;;;;;;;2.17;1.10;;;20.60;90.30;;;;;;5145136;27;45534;-74
2022/10/04 12:29:26;;;;;;;2.10;1.33;;;20.60;90.40;;;;;;5123978;27;48080;-74
2022/10/04 12:31:57;;;;;;;3.42;1.33;;;20.60;90.40;;;;;;5127037;27;45331;-74
2022/10/04 12:34:35;;;;;;;1.23;0.90;;;20.60;90.60;;;;;;5128084;27;45284;-75
2022/10/04 12:37:22;;;;;;;0.98;0.77;;;20.60;90.70;;;;;;5127467;27;45323;-74
2022/10/04 12:40:01;;;;;;;1.33;0.90;;;20.60;90.70;;;;;;5124819;27;45408;-74
2022/10/04 12:42:35;;;;;;;1.30;1.00;;;20.60;90.70;;;;;;5126171;27;45359;-74
2022/10/04 12:45:25;;;;;;;1.48;1.05;;;20.60;90.70;;;;;;5127402;27;45620;-74
2022/10/04 12:48:05;;;;;;;1.73;1.10;;;20.60;90.70;;;;;;5128173;27;45404;-74
2022/10/04 12:50:50;;;;;;;1.48;1.20;;;20.60;91.10;;;;;;5126837;27;45391;-74
2022/10/04 12:53:33;;;;;;;1.25;0.93;;;20.60;90.60;;;;;;5144357;27;45370;-75
2022/10/04 12:56:20;;;;;;;1.55;1.00;;;20.60;90.50;;;;;;5144605;27;45305;-74
2022/10/04 12:59:03;;;;;;;1.45;0.90;;;20.60;90.60;;;;;;5133616;27;45483;-73
2022/10/04 13:01:38;;;;;;;1.25;0.90;;;20.60;90.60;;;;;;5134063;27;45392;-73
2022/10/04 13:04:22;;;;;;;1.92;0.98;;;20.60;90.60;;;;;;5137964;27;45281;-74
2022/10/04 13:06:59;;;;;;;1.65;0.90;;;20.60;90.60;;;;;;5142424;27;45292;-74
2022/10/04 13:09:36;;;;;;;1.52;1.00;;;20.60;90.50;;;;;;5136269;27;45383;-75
2022/10/04 13:12:16;;;;;;;1.00;0.90;;;20.60;90.60;;;;;;5127033;27;46563;-74
2022/10/04 13:15:00;;;;;;;1.75;0.98;;;20.60;90.60;;;;;;5138295;27;45516;-74
2022/10/04 13:17:39;;;;;;;0.82;0.80;;;20.60;90.60;;;;;;5148389;27;45268;-74
2022/10/04 13:20:25;;;;;;;1.00;0.85;;;20.60;90.50;;;;;;5141848;27;45406;-73
2022/10/04 13:22:58;;;;;;;3.60;1.05;;;20.60;90.60;;;;;;5125799;27;45349;-75
2022/10/04 13:25:52;;;;;;;1.73;1.00;;;20.60;90.60;;;;;;5130650;27;46567;-73
2022/10/04 13:28:29;;;;;;;1.98;0.90;;;20.60;90.60;;;;;;5147137;27;45425;-74
2022/10/04 13:31:05;;;;;;;1.50;0.77;;;20.60;90.70;;;;;;5142976;27;45531;-74
2022/10/04 13:33:42;;;;;;;1.77;0.80;;;20.60;90.70;;;;;;5129568;27;45919;-74
2022/10/04 13:36:15;;;;;;;1.50;1.00;;;20.60;90.70;;;;;;5141706;27;45397;-74
2022/10/04 13:39:08;;;;;;;1.50;0.80;;;20.60;90.60;;;;;;5144959;27;45189;-74
2022/10/04 13:41:54;;;;;;;1.55;0.95;;;20.60;91.20;;;;;;5138587;27;46063;-74
2022/10/04 13:44:42;;;;;;;1.30;0.85;;;20.60;90.70;;;;;;5124989;27;46320;-74
2022/10/04 13:47:38;;;;;;;0.98;0.77;;;20.60;90.70;;;;;;5125433;27;45320;-72
2022/10/04 13:50:26;;;;;;;1.15;0.90;;;20.60;90.70;;;;;;5126174;27;45482;-74
2022/10/04 13:59:00;;;;;;;1.67;0.90;;;20.60;90.60;;;;;;5061939;28;45308;-73
2022/10/04 14:02:11;;;;;;;1.17;0.80;;;20.60;90.60;;;;;;5129980;27;45571;-75
2022/10/04 14:05:17;;;;;;;1.15;0.65;;;20.60;90.60;;;;;;5147555;27;45275;-74
2022/10/04 14:08:09;;;;;;;1.50;0.80;;;20.60;90.60;;;;;;5147485;27;47514;-75